Time;durP1;ratioP1;P1;durP2;ratioP2;P2;SDS_P1;SDS_P2;PMS_P1;PMS_P2;Temp;Humidity;BMP_temperature;BMP_pressure;BME280_temperature;BME280_humidity;BME280_pressure;Samples;Min_cycle;Max_cycle;Signal;HPM_P1;HPM_P2
2021/09/11 00:00:31;;;;;;;;;;;;;;;21.79;54.36;101292.19;2083506;28;909;-64
2021/09/11 00:01:31;;;;;;;;;;;;;;;21.79;54.46;101287.69;2083372;28;855;-64
2021/09/11 00:02:31;;;;;;;;;;;;;;;21.80;54.61;101288.56;2083447;28;899;-64
2021/09/11 00:03:33;;;;;;;;;;;;;;;21.77;54.76;101285.06;2083383;28;1005;-64
2021/09/11 00:04:33;;;;;;;;;;;;;;;21.77;54.37;101289.53;2083437;28;882;-64
2021/09/11 00:05:33;;;;;;;;;;;;;;;21.77;55.34;101290.44;2083388;28;839;-64
2021/09/11 00:06:33;;;;;;;;;;;;;;;21.78;55.20;101288.63;2083237;28;981;-64
2021/09/11 00:07:33;;;;;;;;;;;;;;;21.77;54.89;101295.84;2083430;28;1001;-64
2021/09/11 00:08:34;;;;;;;;;;;;;;;21.79;54.04;101293.06;2083455;28;1048;-64
2021/09/11 00:09:34;;;;;;;;;;;;;;;21.76;54.86;101299.47;2082859;28;1594;-65
2021/09/11 00:10:34;;;;;;;;;;;;;;;21.77;54.76;101301.22;2083328;28;985;-63
2021/09/11 00:11:34;;;;;;;;;;;;;;;21.79;54.55;101300.25;2083299;28;1979;-64
2021/09/11 00:12:36;;;;;;;;;;;;;;;21.77;55.08;101303.94;2083048;28;1028;-63
2021/09/11 00:13:37;;;;;;;;;;;;;;;21.76;54.54;101303.94;2083331;28;799;-64
2021/09/11 00:14:38;;;;;;;;;;;;;;;21.76;54.80;101302.16;2083447;28;879;-63
2021/09/11 00:15:38;;;;;;;;;;;;;;;21.76;54.89;101296.75;2083355;28;985;-64
2021/09/11 00:16:38;;;;;;;;;;;;;;;21.77;54.11;101289.53;2083383;28;867;-63
2021/09/11 00:17:39;;;;;;;;;;;;;;;21.77;55.01;101295.84;2083109;28;886;-63
2021/09/11 00:18:39;;;;;;;;;;;;;;;21.77;54.55;101287.75;2074518;28;958;-63
2021/09/11 00:19:39;;;;;;;;;;;;;;;21.77;54.20;101286.84;2074665;28;993;-63
2021/09/11 00:20:39;;;;;;;;;;;;;;;21.77;54.34;101289.53;2083110;28;989;-64
2021/09/11 00:21:40;;;;;;;;;;;;;;;21.77;54.59;101286.84;2083381;28;922;-63
2021/09/11 00:22:40;;;;;;;;;;;;;;;21.76;55.03;101288.69;2083266;28;1133;-65
2021/09/11 00:23:40;;;;;;;;;;;;;;;21.74;55.09;101290.53;2083227;28;1044;-63
2021/09/11 00:24:40;;;;;;;;;;;;;;;21.75;55.17;101286.00;2083299;28;764;-64
2021/09/11 00:25:40;;;;;;;;;;;;;;;21.75;55.09;101280.63;2083295;28;817;-63
2021/09/11 00:26:41;;;;;;;;;;;;;;;21.76;55.31;101285.06;2083313;28;1006;-64
2021/09/11 00:27:41;;;;;;;;;;;;;;;21.73;54.66;101288.78;2083062;28;771;-63
2021/09/11 00:28:41;;;;;;;;;;;;;;;21.75;54.58;101283.31;2083310;28;1317;-63
2021/09/11 00:29:41;;;;;;;;;;;;;;;21.75;54.53;101291.41;2083293;28;855;-63
2021/09/11 00:30:41;;;;;;;;;;;;;;;21.76;54.96;101287.78;2083304;28;985;-63
2021/09/11 00:31:42;;;;;;;;;;;;;;;21.74;55.14;101289.63;2083121;28;1948;-63
2021/09/11 00:32:43;;;;;;;;;;;;;;;21.72;54.60;101284.31;2083199;28;973;-63
2021/09/11 00:33:43;;;;;;;;;;;;;;;21.75;54.66;101286.00;2083155;28;1157;-64
2021/09/11 00:34:44;;;;;;;;;;;;;;;21.73;54.95;101283.38;2083323;28;1000;-63
2021/09/11 00:35:44;;;;;;;;;;;;;;;21.73;54.49;101286.06;2082931;28;1048;-64
2021/09/11 00:36:44;;;;;;;;;;;;;;;21.72;54.55;101276.22;2083273;28;861;-63
2021/09/11 00:37:45;;;;;;;;;;;;;;;21.71;54.71;101274.44;2083118;28;791;-63
2021/09/11 00:38:45;;;;;;;;;;;;;;;21.73;54.59;101277.97;2082861;28;837;-63
2021/09/11 00:39:45;;;;;;;;;;;;;;;21.72;54.71;101280.72;2083141;28;981;-63
2021/09/11 00:40:45;;;;;;;;;;;;;;;21.75;54.28;101275.22;2083111;28;1190;-63
2021/09/11 00:41:45;;;;;;;;;;;;;;;21.73;54.79;101272.59;2082852;28;1252;-63
2021/09/11 00:42:48;;;;;;;;;;;;;;;21.73;55.21;101272.59;2083146;28;914;-63
2021/09/11 00:43:49;;;;;;;;;;;;;;;21.74;55.02;101274.34;2083166;28;858;-63
2021/09/11 00:44:50;;;;;;;;;;;;;;;21.73;54.40;101277.97;2083206;28;1001;-63
2021/09/11 00:45:50;;;;;;;;;;;;;;;21.72;55.20;101269.94;2083159;28;1005;-63
2021/09/11 00:46:50;;;;;;;;;;;;;;;21.72;55.18;101276.22;2082994;28;1305;-63
2021/09/11 00:47:51;;;;;;;;;;;;;;;21.71;54.76;101273.56;2083149;28;791;-63
2021/09/11 00:48:51;;;;;;;;;;;;;;;21.70;55.08;101270.00;2083219;28;982;-63
2021/09/11 00:49:52;;;;;;;;;;;;;;;21.71;54.48;101274.44;2083260;28;799;-63
2021/09/11 00:50:52;;;;;;;;;;;;;;;21.72;54.83;101275.31;2083217;28;814;-63
2021/09/11 00:51:52;;;;;;;;;;;;;;;21.70;54.97;101269.09;2084525;28;1961;-63
2021/09/11 00:52:52;;;;;;;;;;;;;;;21.72;54.43;101270.81;2084720;28;831;-63
2021/09/11 00:53:53;;;;;;;;;;;;;;;21.71;55.21;101269.06;2084817;28;907;-63
2021/09/11 00:54:53;;;;;;;;;;;;;;;21.71;54.81;101269.06;2084840;28;839;-63
2021/09/11 00:55:53;;;;;;;;;;;;;;;21.70;54.47;101272.69;2084463;28;1427;-63
2021/09/11 00:56:55;;;;;;;;;;;;;;;21.71;55.14;101269.06;2084871;28;1224;-63
2021/09/11 00:57:55;;;;;;;;;;;;;;;21.72;55.23;101272.63;2084808;28;894;-64
2021/09/11 00:58:56;;;;;;;;;;;;;;;21.72;54.82;101272.63;2084853;28;842;-63
2021/09/11 00:59:56;;;;;;;;;;;;;;;21.70;54.62;101266.41;2084736;28;941;-63
2021/09/11 01:00:56;;;;;;;;;;;;;;;21.71;54.38;101262.78;2084764;28;977;-63
2021/09/11 01:01:56;;;;;;;;;;;;;;;21.71;54.74;101266.38;2084696;28;775;-63
2021/09/11 01:02:57;;;;;;;;;;;;;;;21.74;55.01;101270.75;2084737;28;819;-62
2021/09/11 01:03:57;;;;;;;;;;;;;;;21.70;54.70;101266.41;2084654;28;894;-63
2021/09/11 01:04:57;;;;;;;;;;;;;;;21.69;55.13;101267.31;2084815;28;1066;-63
2021/09/11 01:05:57;;;;;;;;;;;;;;;21.70;54.58;101261.00;2084522;28;771;-63
2021/09/11 01:06:58;;;;;;;;;;;;;;;21.72;55.21;101268.13;2084769;28;943;-63
2021/09/11 01:07:58;;;;;;;;;;;;;;;21.71;55.07;101262.78;2084747;28;1016;-63
2021/09/11 01:08:58;;;;;;;;;;;;;;;21.70;54.38;101261.91;2084453;28;1063;-63
2021/09/11 01:09:59;;;;;;;;;;;;;;;21.70;54.58;101256.50;2084767;28;850;-65
2021/09/11 01:10:59;;;;;;;;;;;;;;;21.70;55.35;101264.59;2084712;28;807;-64
2021/09/11 01:11:59;;;;;;;;;;;;;;;21.70;54.90;101255.59;2084605;28;1910;-62
2021/09/11 01:13:01;;;;;;;;;;;;;;;21.69;55.45;101259.25;2084732;28;1052;-63
2021/09/11 01:14:01;;;;;;;;;;;;;;;21.69;54.59;101264.63;2084750;28;1008;-62
2021/09/11 01:15:02;;;;;;;;;;;;;;;21.68;54.50;101268.25;2084311;28;887;-62
2021/09/11 01:16:03;;;;;;;;;;;;;;;21.69;55.15;101265.53;2084708;28;916;-63
2021/09/11 01:17:03;;;;;;;;;;;;;;;21.69;54.95;101259.25;2084659;28;883;-62
2021/09/11 01:18:04;;;;;;;;;;;;;;;21.67;54.80;101256.59;2084683;28;930;-62
2021/09/11 01:19:04;;;;;;;;;;;;;;;21.69;54.64;101259.25;2084656;28;819;-62
2021/09/11 01:20:05;;;;;;;;;;;;;;;21.69;54.35;101252.03;2084407;28;929;-63
2021/09/11 01:21:05;;;;;;;;;;;;;;;21.67;54.59;101253.91;2084545;28;1118;-62
2021/09/11 01:22:10;;;;;;;;;;;;;;;21.68;54.83;101255.66;2084621;28;885;-63
2021/09/11 01:23:10;;;;;;;;;;;;;;;21.68;54.67;101254.78;2084496;28;1005;-63
2021/09/11 01:24:11;;;;;;;;;;;;;;;21.68;54.41;101260.16;2084607;28;993;-63
2021/09/11 01:25:11;;;;;;;;;;;;;;;21.66;55.08;101257.53;2084689;28;821;-63
2021/09/11 01:26:14;;;;;;;;;;;;;;;21.67;54.97;101253.91;2084522;28;756;-63
2021/09/11 01:27:14;;;;;;;;;;;;;;;21.69;55.06;101254.75;2084622;28;803;-62
2021/09/11 01:28:15;;;;;;;;;;;;;;;21.70;54.79;101258.31;2084177;28;1028;-63
2021/09/11 01:29:15;;;;;;;;;;;;;;;21.71;54.97;101263.66;2084563;28;819;-63
2021/09/11 01:30:16;;;;;;;;;;;;;;;21.68;55.22;101263.75;2084555;28;985;-63
2021/09/11 01:31:16;;;;;;;;;;;;;;;21.67;54.72;101264.69;2084529;28;1933;-63
2021/09/11 01:32:16;;;;;;;;;;;;;;;21.68;55.29;101255.66;2084499;28;914;-62
2021/09/11 01:33:17;;;;;;;;;;;;;;;21.67;54.92;101255.72;2084538;28;982;-63
2021/09/11 01:34:17;;;;;;;;;;;;;;;21.66;55.01;101249.44;2084529;28;846;-63
2021/09/11 01:35:18;;;;;;;;;;;;;;;21.67;54.63;101251.22;2084613;28;898;-63
2021/09/11 01:36:18;;;;;;;;;;;;;;;21.69;54.40;101252.03;2084191;28;903;-63
2021/09/11 01:37:19;;;;;;;;;;;;;;;21.69;54.63;101243.06;2084619;28;778;-63
2021/09/11 01:38:19;;;;;;;;;;;;;;;21.69;54.69;101243.06;2084540;28;850;-62
2021/09/11 01:39:19;;;;;;;;;;;;;;;21.67;54.51;101245.81;2084484;28;1028;-63
2021/09/11 01:40:21;;;;;;;;;;;;;;;21.68;55.01;101242.19;2084479;28;1481;-64
2021/09/11 01:41:21;;;;;;;;;;;;;;;21.70;55.25;101239.44;2075415;28;1241;-63
2021/09/11 01:42:22;;;;;;;;;;;;;;;21.68;54.80;101244.88;2075734;28;843;-63
2021/09/11 01:43:34;;;;;;;;;;;;;;;21.69;55.24;101245.75;2084488;28;867;-63
2021/09/11 01:44:34;;;;;;;;;;;;;;;21.70;54.61;101244.81;2084540;28;835;-64
2021/09/11 01:45:34;;;;;;;;;;;;;;;21.68;55.24;101252.09;2084415;28;855;-63
2021/09/11 01:46:34;;;;;;;;;;;;;;;21.68;55.42;101247.59;2084417;28;760;-63
2021/09/11 01:47:35;;;;;;;;;;;;;;;21.70;54.75;101239.44;2084273;28;1054;-62
2021/09/11 01:48:35;;;;;;;;;;;;;;;21.70;54.80;101245.72;2084498;28;823;-63
2021/09/11 01:49:35;;;;;;;;;;;;;;;21.71;54.67;101244.78;2084291;28;1025;-61
2021/09/11 01:50:35;;;;;;;;;;;;;;;21.71;54.44;101242.09;2084333;28;883;-61
2021/09/11 01:51:44;;;;;;;;;;;;;;;21.72;54.66;101241.16;2084340;28;1967;-60
2021/09/11 01:52:44;;;;;;;;;;;;;;;21.74;54.49;101241.09;2084208;28;997;-61
2021/09/11 01:53:44;;;;;;;;;;;;;;;21.72;54.78;101238.47;2084334;28;1206;-64
2021/09/11 01:54:44;;;;;;;;;;;;;;;21.71;54.35;101239.41;2084587;28;1036;-65
2021/09/11 01:55:45;;;;;;;;;;;;;;;21.69;55.40;101237.66;2084369;28;1049;-64
2021/09/11 01:56:45;;;;;;;;;;;;;;;21.68;54.92;101239.50;2084445;28;1056;-63
2021/09/11 01:57:45;;;;;;;;;;;;;;;21.70;55.22;101242.13;2084337;28;1060;-66
2021/09/11 01:58:45;;;;;;;;;;;;;;;21.69;55.01;101243.06;2083686;28;1410;-64
2021/09/11 01:59:46;;;;;;;;;;;;;;;21.68;54.73;101257.47;2084372;28;875;-65
2021/09/11 02:00:46;;;;;;;;;;;;;;;21.68;54.73;101246.69;2084254;28;846;-64
2021/09/11 02:01:46;;;;;;;;;;;;;;;21.67;54.81;101245.81;2084357;28;905;-65
2021/09/11 02:02:47;;;;;;;;;;;;;;;21.65;55.21;101253.06;2084284;28;1048;-64
2021/09/11 02:03:47;;;;;;;;;;;;;;;21.66;54.60;101248.56;2084268;28;993;-64
2021/09/11 02:04:47;;;;;;;;;;;;;;;21.67;54.54;101244.91;2084283;28;1129;-64
2021/09/11 02:05:47;;;;;;;;;;;;;;;21.66;54.98;101243.16;2084307;28;875;-64
2021/09/11 02:06:47;;;;;;;;;;;;;;;21.66;54.81;101249.44;2084325;28;1075;-65
2021/09/11 02:07:47;;;;;;;;;;;;;;;21.68;54.86;101249.38;2084341;28;843;-64
2021/09/11 02:08:48;;;;;;;;;;;;;;;21.66;54.60;101243.16;2084349;28;811;-64
2021/09/11 02:09:48;;;;;;;;;;;;;;;21.65;54.64;101247.69;2084099;28;1419;-64
2021/09/11 02:10:48;;;;;;;;;;;;;;;21.66;54.75;101254.84;2084178;28;870;-65
2021/09/11 02:11:48;;;;;;;;;;;;;;;21.66;55.27;101251.25;2084017;28;1981;-64
2021/09/11 02:12:48;;;;;;;;;;;;;;;21.67;54.97;101250.31;2084298;28;1052;-65
2021/09/11 02:13:48;;;;;;;;;;;;;;;21.67;54.70;101239.53;2084138;28;847;-64
2021/09/11 02:14:48;;;;;;;;;;;;;;;21.67;54.90;101248.50;2084275;28;1123;-65
2021/09/11 02:15:49;;;;;;;;;;;;;;;21.65;55.16;101244.09;2084182;28;1049;-64
2021/09/11 02:16:49;;;;;;;;;;;;;;;21.64;55.50;101245.00;2084199;28;772;-65
2021/09/11 02:17:49;;;;;;;;;;;;;;;21.64;55.54;101242.31;2084247;28;1051;-64
2021/09/11 02:18:49;;;;;;;;;;;;;;;21.64;55.58;101245.00;2084238;28;786;-64
2021/09/11 02:19:49;;;;;;;;;;;;;;;21.65;55.17;101246.78;2084144;28;1410;-64
2021/09/11 02:20:51;;;;;;;;;;;;;;;21.64;55.19;101247.72;2084254;28;1029;-64
2021/09/11 02:21:51;;;;;;;;;;;;;;;21.65;55.34;101250.38;2084042;28;799;-64
2021/09/11 02:22:52;;;;;;;;;;;;;;;21.62;55.50;101245.94;2084218;28;970;-63
2021/09/11 02:23:52;;;;;;;;;;;;;;;21.65;54.77;101242.28;2084148;28;776;-64
2021/09/11 02:24:52;;;;;;;;;;;;;;;21.66;54.78;101243.16;2083801;28;1351;-63
2021/09/11 02:25:52;;;;;;;;;;;;;;;21.63;54.91;101244.16;2084126;28;996;-64
2021/09/11 02:26:52;;;;;;;;;;;;;;;21.65;54.95;101246.78;2084213;28;1041;-63
2021/09/11 02:27:53;;;;;;;;;;;;;;;21.64;55.19;101245.91;2084171;28;771;-64
2021/09/11 02:28:53;;;;;;;;;;;;;;;21.63;54.53;101249.53;2084159;28;808;-63
2021/09/11 02:29:53;;;;;;;;;;;;;;;21.64;54.72;101250.41;2084125;28;1004;-64
2021/09/11 02:30:53;;;;;;;;;;;;;;;21.65;55.16;101247.69;2084175;28;775;-63
2021/09/11 02:31:53;;;;;;;;;;;;;;;21.66;54.82;101245.84;2083889;28;1951;-64
2021/09/11 02:32:54;;;;;;;;;;;;;;;21.62;55.42;101248.63;2084098;28;981;-63
2021/09/11 02:33:54;;;;;;;;;;;;;;;21.65;54.98;101244.97;2084086;28;823;-64
2021/09/11 02:34:54;;;;;;;;;;;;;;;21.63;54.32;101249.53;2083891;28;818;-63
2021/09/11 02:35:55;;;;;;;;;;;;;;;21.61;55.46;101252.22;2084091;28;867;-63
2021/09/11 02:36:55;;;;;;;;;;;;;;;21.64;54.92;101250.41;2084048;28;1036;-63
2021/09/11 02:37:55;;;;;;;;;;;;;;;21.62;55.11;101247.78;2083787;28;791;-63
2021/09/11 02:38:55;;;;;;;;;;;;;;;21.63;55.25;101249.53;2084100;28;910;-63
2021/09/11 02:39:55;;;;;;;;;;;;;;;21.64;55.61;101254.00;2084051;28;1001;-63
2021/09/11 02:40:55;;;;;;;;;;;;;;;21.64;54.67;101253.09;2083539;28;1454;-64
2021/09/11 02:41:55;;;;;;;;;;;;;;;21.64;55.36;101259.41;2084006;28;787;-63
2021/09/11 02:42:56;;;;;;;;;;;;;;;21.65;55.14;101249.47;2084050;28;727;-64
2021/09/11 02:43:56;;;;;;;;;;;;;;;21.64;55.36;101250.41;2084063;28;814;-63
2021/09/11 02:44:56;;;;;;;;;;;;;;;21.63;55.44;101252.25;2084046;28;918;-64
2021/09/11 02:45:56;;;;;;;;;;;;;;;21.62;54.90;101250.47;2083552;28;1080;-63
2021/09/11 02:46:56;;;;;;;;;;;;;;;21.63;55.02;101249.53;2083815;28;1000;-63
2021/09/11 02:47:56;;;;;;;;;;;;;;;21.64;54.70;101240.53;2083937;28;1412;-63
2021/09/11 02:48:57;;;;;;;;;;;;;;;21.62;55.19;101242.38;2084121;28;679;-63
2021/09/11 02:49:57;;;;;;;;;;;;;;;21.61;55.01;101246.84;2083967;28;815;-63
2021/09/11 02:50:57;;;;;;;;;;;;;;;21.61;55.07;101244.16;2083953;28;949;-63
2021/09/11 02:51:58;;;;;;;;;;;;;;;21.61;54.76;101244.16;2083725;28;1898;-63
2021/09/11 02:52:58;;;;;;;;;;;;;;;21.64;54.75;101234.22;2083929;28;1052;-63
2021/09/11 02:53:59;;;;;;;;;;;;;;;21.62;54.89;101239.69;2083926;28;826;-63
2021/09/11 02:54:59;;;;;;;;;;;;;;;21.62;55.04;101247.78;2083519;28;997;-63
2021/09/11 02:55:59;;;;;;;;;;;;;;;21.61;54.93;101246.84;2083952;28;977;-63
2021/09/11 02:56:59;;;;;;;;;;;;;;;21.59;54.96;101246.00;2083895;28;837;-63
2021/09/11 02:57:59;;;;;;;;;;;;;;;21.62;55.59;101245.09;2083925;28;803;-64
2021/09/11 02:58:59;;;;;;;;;;;;;;;21.62;55.51;101242.38;2084009;28;846;-62
2021/09/11 03:00:00;;;;;;;;;;;;;;;21.60;55.38;101237.00;2083811;28;855;-63
2021/09/11 03:01:00;;;;;;;;;;;;;;;21.60;54.84;101244.22;2083881;28;740;-63
2021/09/11 03:02:00;;;;;;;;;;;;;;;21.63;55.08;101241.44;2083898;28;764;-63
2021/09/11 03:03:00;;;;;;;;;;;;;;;21.64;55.00;101239.63;2083693;28;894;-63
2021/09/11 03:04:01;;;;;;;;;;;;;;;21.62;55.42;101237.84;2083868;28;1020;-63
2021/09/11 03:05:01;;;;;;;;;;;;;;;21.60;55.20;101238.81;2083817;28;862;-63
2021/09/11 03:06:01;;;;;;;;;;;;;;;21.59;55.21;101237.91;2083645;28;981;-63
2021/09/11 03:07:01;;;;;;;;;;;;;;;21.61;55.48;101237.88;2083845;28;846;-64
2021/09/11 03:08:01;;;;;;;;;;;;;;;21.60;54.87;101239.69;2083815;28;1044;-63
2021/09/11 03:09:01;;;;;;;;;;;;;;;21.61;55.17;101243.28;2083618;28;1193;-63
2021/09/11 03:10:02;;;;;;;;;;;;;;;21.62;55.17;101242.38;2075076;28;827;-63
2021/09/11 03:11:02;;;;;;;;;;;;;;;21.60;55.50;101244.22;2074869;28;1134;-63
2021/09/11 03:12:02;;;;;;;;;;;;;;;21.61;55.07;101236.06;2083573;28;1910;-63
2021/09/11 03:13:02;;;;;;;;;;;;;;;21.60;55.43;101237.00;2083837;28;925;-63
2021/09/11 03:14:02;;;;;;;;;;;;;;;21.60;55.29;101238.81;2083139;28;1512;-63
2021/09/11 03:15:03;;;;;;;;;;;;;;;21.61;55.07;101233.38;2074995;28;954;-62
2021/09/11 03:16:03;;;;;;;;;;;;;;;21.59;55.75;101240.63;2075005;28;977;-63
2021/09/11 03:17:04;;;;;;;;;;;;;;;21.61;54.78;101232.50;2083616;28;1032;-63
2021/09/11 03:18:04;;;;;;;;;;;;;;;21.60;54.95;101231.59;2083695;28;902;-63
2021/09/11 03:19:04;;;;;;;;;;;;;;;21.64;54.62;101236.94;2083553;28;1032;-63
2021/09/11 03:20:05;;;;;;;;;;;;;;;21.60;54.91;101233.44;2083433;28;799;-64
2021/09/11 03:21:05;;;;;;;;;;;;;;;21.60;55.16;101234.28;2083688;28;878;-63
2021/09/11 03:22:05;;;;;;;;;;;;;;;21.59;55.01;101229.84;2083707;28;973;-63
2021/09/11 03:23:06;;;;;;;;;;;;;;;21.61;54.85;101237.88;2083715;28;881;-62
2021/09/11 03:24:06;;;;;;;;;;;;;;;21.61;55.00;101235.19;2083648;28;1032;-63
2021/09/11 03:25:06;;;;;;;;;;;;;;;21.58;55.46;101235.28;2083532;28;977;-63
2021/09/11 03:26:06;;;;;;;;;;;;;;;21.58;55.24;101233.47;2083690;28;1168;-62
2021/09/11 03:27:07;;;;;;;;;;;;;;;21.60;55.15;101228.03;2083634;28;779;-63
2021/09/11 03:28:07;;;;;;;;;;;;;;;21.61;54.98;101235.19;2083612;28;973;-62
2021/09/11 03:29:07;;;;;;;;;;;;;;;21.60;54.81;101236.13;2083652;28;880;-63
2021/09/11 03:30:08;;;;;;;;;;;;;;;21.60;54.78;101234.28;2083619;28;851;-63
2021/09/11 03:31:08;;;;;;;;;;;;;;;21.59;55.35;101229.84;2083714;28;839;-63
2021/09/11 03:32:08;;;;;;;;;;;;;;;21.58;54.96;101230.75;2083580;28;1890;-62
2021/09/11 03:33:08;;;;;;;;;;;;;;;21.59;54.96;101227.13;2083575;28;784;-64
2021/09/11 03:34:08;;;;;;;;;;;;;;;21.58;55.19;101219.13;2083644;28;981;-62
2021/09/11 03:35:09;;;;;;;;;;;;;;;21.60;55.22;101225.34;2083511;28;989;-63
2021/09/11 03:36:09;;;;;;;;;;;;;;;21.59;55.35;101229.84;2083310;28;1210;-63
2021/09/11 03:37:09;;;;;;;;;;;;;;;21.57;55.18;101223.59;2083592;28;1076;-62
2021/09/11 03:38:10;;;;;;;;;;;;;;;21.60;54.91;101223.50;2083613;28;728;-63
2021/09/11 03:39:10;;;;;;;;;;;;;;;21.61;54.89;101224.41;2083603;28;811;-63
2021/09/11 03:40:12;;;;;;;;;;;;;;;21.58;55.34;101225.38;2083496;28;1447;-63
2021/09/11 03:41:12;;;;;;;;;;;;;;;21.59;54.70;101220.88;2083512;28;894;-63
2021/09/11 03:42:12;;;;;;;;;;;;;;;21.60;54.88;101222.66;2083475;28;993;-63
2021/09/11 03:43:12;;;;;;;;;;;;;;;21.58;55.62;101217.28;2083483;28;998;-63
2021/09/11 03:44:13;;;;;;;;;;;;;;;21.58;55.81;101222.69;2083563;28;760;-63
2021/09/11 03:45:13;;;;;;;;;;;;;;;21.58;54.97;101219.13;2083495;28;989;-63
2021/09/11 03:46:13;;;;;;;;;;;;;;;21.56;55.58;101223.66;2083316;28;929;-64
2021/09/11 03:47:13;;;;;;;;;;;;;;;21.58;54.80;101219.97;2083476;28;1044;-63
2021/09/11 03:48:13;;;;;;;;;;;;;;;21.60;55.06;101222.66;2083571;28;819;-63
2021/09/11 03:49:13;;;;;;;;;;;;;;;21.59;55.09;101223.56;2083437;28;918;-62
2021/09/11 03:50:14;;;;;;;;;;;;;;;21.58;55.04;101219.97;2083506;28;767;-64
2021/09/11 03:51:14;;;;;;;;;;;;;;;21.58;55.29;101219.97;2083466;28;784;-62
2021/09/11 03:52:14;;;;;;;;;;;;;;;21.55;55.63;101217.38;2083088;28;1893;-63
2021/09/11 03:53:14;;;;;;;;;;;;;;;21.57;54.85;101215.53;2083523;28;859;-63
2021/09/11 03:54:14;;;;;;;;;;;;;;;21.58;55.33;101208.34;2083416;28;1013;-62
2021/09/11 03:55:15;;;;;;;;;;;;;;;21.58;54.95;101217.28;2083282;28;811;-63
2021/09/11 03:56:15;;;;;;;;;;;;;;;21.59;54.76;101210.97;2083432;28;783;-62
2021/09/11 03:57:15;;;;;;;;;;;;;;;21.57;55.42;101210.13;2083286;28;1032;-63
2021/09/11 03:58:15;;;;;;;;;;;;;;;21.56;55.09;101211.06;2083286;28;933;-63
2021/09/11 03:59:15;;;;;;;;;;;;;;;21.58;55.24;101214.59;2083412;28;842;-63
2021/09/11 04:00:16;;;;;;;;;;;;;;;21.58;54.91;101209.19;2083311;28;871;-62
2021/09/11 04:01:16;;;;;;;;;;;;;;;21.57;55.37;101212.81;2083412;28;977;-63
2021/09/11 04:02:16;;;;;;;;;;;;;;;21.59;54.90;101210.97;2083342;28;1041;-62
2021/09/11 04:03:16;;;;;;;;;;;;;;;22.01;53.99;101206.09;2083187;28;1000;-63
2021/09/11 04:04:16;;;;;;;;;;;;;;;22.19;53.52;101212.66;2083324;28;1016;-63
2021/09/11 04:05:16;;;;;;;;;;;;;;;22.30;52.82;101210.47;2083449;28;779;-64
2021/09/11 04:06:16;;;;;;;;;;;;;;;22.35;52.58;101210.31;2082952;28;914;-63
2021/09/11 04:07:17;;;;;;;;;;;;;;;22.43;52.54;101212.72;2083388;28;839;-63
2021/09/11 04:08:17;;;;;;;;;;;;;;;22.50;52.83;101206.19;2083401;28;859;-63
2021/09/11 04:09:17;;;;;;;;;;;;;;;22.52;52.22;101207.03;2082867;28;1197;-63
2021/09/11 04:10:17;;;;;;;;;;;;;;;22.58;52.00;101209.50;2083375;28;1005;-63
2021/09/11 04:11:17;;;;;;;;;;;;;;;22.60;52.06;101212.16;2083357;28;1041;-63
2021/09/11 04:12:18;;;;;;;;;;;;;;;22.63;52.03;101203.97;2083260;28;1922;-63
2021/09/11 04:13:18;;;;;;;;;;;;;;;22.67;51.53;101210.13;2083342;28;824;-63
2021/09/11 04:14:18;;;;;;;;;;;;;;;22.71;51.50;101209.06;2083335;28;990;-64
2021/09/11 04:15:18;;;;;;;;;;;;;;;22.72;51.49;101211.69;2083430;28;1003;-62
2021/09/11 04:16:18;;;;;;;;;;;;;;;22.76;51.27;101215.19;2083373;28;846;-63
2021/09/11 04:17:19;;;;;;;;;;;;;;;22.78;51.15;101216.88;2083273;28;863;-63
2021/09/11 04:18:19;;;;;;;;;;;;;;;22.80;51.09;101217.69;2083342;28;981;-63
2021/09/11 04:19:19;;;;;;;;;;;;;;;22.80;51.24;101206.91;2083390;28;763;-63
2021/09/11 04:20:19;;;;;;;;;;;;;;;22.82;51.52;101209.56;2083028;28;826;-63
2021/09/11 04:21:19;;;;;;;;;;;;;;;22.84;51.46;101213.09;2083310;28;838;-63
2021/09/11 04:22:19;;;;;;;;;;;;;;;22.87;51.16;101212.06;2083344;28;807;-62
2021/09/11 04:23:20;;;;;;;;;;;;;;;22.86;51.35;101207.63;2083012;28;871;-63
2021/09/11 04:24:20;;;;;;;;;;;;;;;22.90;51.34;101209.25;2083253;28;1044;-63
2021/09/11 04:25:20;;;;;;;;;;;;;;;22.88;50.81;101203.03;2083048;28;993;-63
2021/09/11 04:26:20;;;;;;;;;;;;;;;22.90;51.21;101206.56;2082726;28;763;-63
2021/09/11 04:27:20;;;;;;;;;;;;;;;22.92;51.02;101212.78;2083279;28;1001;-63
2021/09/11 04:28:20;;;;;;;;;;;;;;;22.91;50.78;101206.53;2083058;28;779;-63
2021/09/11 04:29:20;;;;;;;;;;;;;;;22.93;50.75;101207.34;2083191;28;1220;-64
2021/09/11 04:30:21;;;;;;;;;;;;;;;22.92;51.09;101210.09;2083259;28;1033;-63
2021/09/11 04:31:21;;;;;;;;;;;;;;;22.92;51.28;101204.69;2083279;28;1064;-63
2021/09/11 04:32:21;;;;;;;;;;;;;;;22.93;51.38;101211.84;2083174;28;1951;-63
2021/09/11 04:33:21;;;;;;;;;;;;;;;22.94;51.41;101209.09;2083258;28;792;-64
2021/09/11 04:34:21;;;;;;;;;;;;;;;22.94;50.92;101209.09;2082904;28;1025;-62
2021/09/11 04:35:21;;;;;;;;;;;;;;;22.95;51.49;101210.88;2083232;28;898;-63
2021/09/11 04:36:22;;;;;;;;;;;;;;;22.95;51.00;101212.69;2083237;28;930;-63
2021/09/11 04:37:22;;;;;;;;;;;;;;;22.98;51.30;101208.97;2082931;28;858;-63
2021/09/11 04:38:22;;;;;;;;;;;;;;;22.95;51.27;101202.75;2083203;28;1024;-63
2021/09/11 04:39:22;;;;;;;;;;;;;;;22.97;50.81;101210.78;2083224;28;997;-63
2021/09/11 04:40:22;;;;;;;;;;;;;;;22.95;51.26;101209.97;2082752;28;1460;-63
2021/09/11 04:41:23;;;;;;;;;;;;;;;22.95;51.80;101209.97;2074235;28;1403;-62
2021/09/11 04:42:23;;;;;;;;;;;;;;;22.99;51.26;101213.44;2074463;28;1012;-64
2021/09/11 04:43:23;;;;;;;;;;;;;;;22.99;50.65;101210.72;2083082;28;855;-63
2021/09/11 04:44:23;;;;;;;;;;;;;;;22.98;50.94;101204.47;2083168;28;1028;-64
2021/09/11 04:45:23;;;;;;;;;;;;;;;23.00;51.15;101209.78;2082961;28;772;-63
2021/09/11 04:46:24;;;;;;;;;;;;;;;23.01;50.82;101208.84;2083130;28;893;-63
2021/09/11 04:47:24;;;;;;;;;;;;;;;23.00;50.86;101212.50;2083138;28;755;-63
2021/09/11 04:48:24;;;;;;;;;;;;;;;23.02;50.76;101213.31;2082800;28;981;-63
2021/09/11 04:49:24;;;;;;;;;;;;;;;23.02;50.64;101207.91;2083182;28;775;-62
2021/09/11 04:50:24;;;;;;;;;;;;;;;23.02;50.64;101206.09;2083122;28;862;-63
2021/09/11 04:51:24;;;;;;;;;;;;;;;23.04;51.08;101208.72;2082906;28;1902;-63
2021/09/11 04:52:24;;;;;;;;;;;;;;;23.04;51.27;101203.31;2083121;28;1040;-63
2021/09/11 04:53:25;;;;;;;;;;;;;;;23.03;51.43;101191.66;2083030;28;887;-63
2021/09/11 04:54:25;;;;;;;;;;;;;;;23.04;50.50;101200.63;2083086;28;811;-62
2021/09/11 04:55:25;;;;;;;;;;;;;;;23.04;50.73;101200.63;2083122;28;981;-64
2021/09/11 04:56:25;;;;;;;;;;;;;;;23.05;50.68;101197.88;2082957;28;900;-62
2021/09/11 04:57:25;;;;;;;;;;;;;;;23.05;50.92;101196.97;2082996;28;847;-63
2021/09/11 04:58:25;;;;;;;;;;;;;;;23.07;50.74;101197.81;2083135;28;1131;-63
2021/09/11 04:59:26;;;;;;;;;;;;;;;23.05;50.88;101194.28;2082917;28;843;-64
2021/09/11 05:00:26;;;;;;;;;;;;;;;23.05;50.91;101208.69;2082977;28;871;-63
2021/09/11 05:01:26;;;;;;;;;;;;;;;23.05;50.51;101200.59;2083114;28;1040;-64
2021/09/11 05:02:26;;;;;;;;;;;;;;;23.07;50.82;101204.09;2083090;28;989;-63
2021/09/11 05:03:26;;;;;;;;;;;;;;;23.06;50.50;101201.44;2083045;28;783;-63
2021/09/11 05:04:26;;;;;;;;;;;;;;;23.07;51.27;101208.63;2083034;28;1032;-63
2021/09/11 05:05:26;;;;;;;;;;;;;;;23.08;50.90;101202.28;2082991;28;981;-63
2021/09/11 05:06:27;;;;;;;;;;;;;;;23.08;50.82;101204.97;2083162;28;1483;-63
2021/09/11 05:07:27;;;;;;;;;;;;;;;23.07;50.88;101200.50;2083093;28;897;-63
2021/09/11 05:08:27;;;;;;;;;;;;;;;23.07;51.39;101197.81;2083070;28;997;-64
2021/09/11 05:09:27;;;;;;;;;;;;;;;23.07;50.89;101195.09;2082909;28;1317;-63
2021/09/11 05:10:28;;;;;;;;;;;;;;;23.08;50.62;101194.16;2083053;28;791;-64
2021/09/11 05:11:28;;;;;;;;;;;;;;;23.09;51.05;101193.22;2082996;28;1981;-63
2021/09/11 05:12:28;;;;;;;;;;;;;;;23.10;51.46;101197.69;2083081;28;1346;-63
2021/09/11 05:13:28;;;;;;;;;;;;;;;23.09;51.42;101194.13;2082891;28;993;-63
2021/09/11 05:14:30;;;;;;;;;;;;;;;23.10;51.01;101197.69;2083097;28;704;-64
2021/09/11 05:15:30;;;;;;;;;;;;;;;23.09;50.64;101191.41;2083140;28;842;-63
2021/09/11 05:16:31;;;;;;;;;;;;;;;23.09;50.56;101191.41;2082976;28;1037;-64